sensor_id;sensor_type;location;lat;lon;timestamp;temperature;humidity
45137;DHT22;30894;51.740;19.498;2023-02-15T00:01:58;4.50;99.90
45137;DHT22;30894;51.740;19.498;2023-02-15T00:04:25;4.50;99.90
45137;DHT22;30894;51.740;19.498;2023-02-15T00:07:16;4.50;99.90
45137;DHT22;30894;51.740;19.498;2023-02-15T00:09:45;4.40;99.90
45137;DHT22;30894;51.740;19.498;2023-02-15T00:12:12;4.50;99.90
45137;DHT22;30894;51.740;19.498;2023-02-15T00:14:39;4.50;99.90
45137;DHT22;30894;51.740;19.498;2023-02-15T00:17:05;4.50;99.90
45137;DHT22;30894;51.740;19.498;2023-02-15T00:19:31;4.60;99.90
45137;DHT22;30894;51.740;19.498;2023-02-15T00:21:57;4.60;99.90
45137;DHT22;30894;51.740;19.498;2023-02-15T00:24:23;4.60;99.90
45137;DHT22;30894;51.740;19.498;2023-02-15T00:26:49;4.60;99.90
45137;DHT22;30894;51.740;19.498;2023-02-15T00:29:16;4.60;99.90
45137;DHT22;30894;51.740;19.498;2023-02-15T00:31:44;4.60;99.90
45137;DHT22;30894;51.740;19.498;2023-02-15T00:36:42;4.60;99.90
45137;DHT22;30894;51.740;19.498;2023-02-15T00:39:09;4.60;99.90
45137;DHT22;30894;51.740;19.498;2023-02-15T00:41:36;4.60;99.90
45137;DHT22;30894;51.740;19.498;2023-02-15T00:44:02;4.60;99.90
45137;DHT22;30894;51.740;19.498;2023-02-15T00:46:29;4.60;99.90
45137;DHT22;30894;51.740;19.498;2023-02-15T00:48:55;4.70;99.90
45137;DHT22;30894;51.740;19.498;2023-02-15T00:51:22;4.70;99.90
45137;DHT22;30894;51.740;19.498;2023-02-15T00:53:48;4.70;99.90
45137;DHT22;30894;51.740;19.498;2023-02-15T00:56:15;4.70;99.90
45137;DHT22;30894;51.740;19.498;2023-02-15T00:58:41;4.70;99.90
45137;DHT22;30894;51.740;19.498;2023-02-15T01:01:10;4.70;99.90
45137;DHT22;30894;51.740;19.498;2023-02-15T01:03:39;4.60;99.90
45137;DHT22;30894;51.740;19.498;2023-02-15T01:06:08;4.70;99.90
45137;DHT22;30894;51.740;19.498;2023-02-15T01:08:35;4.60;99.90
45137;DHT22;30894;51.740;19.498;2023-02-15T01:11:12;4.60;99.90
45137;DHT22;30894;51.740;19.498;2023-02-15T01:13:41;4.60;99.90
45137;DHT22;30894;51.740;19.498;2023-02-15T01:16:08;4.60;99.90
45137;DHT22;30894;51.740;19.498;2023-02-15T01:18:35;4.60;99.90
45137;DHT22;30894;51.740;19.498;2023-02-15T01:21:11;4.60;99.90
45137;DHT22;30894;51.740;19.498;2023-02-15T01:23:40;4.60;99.90
45137;DHT22;30894;51.740;19.498;2023-02-15T01:26:08;4.60;99.90
45137;DHT22;30894;51.740;19.498;2023-02-15T01:28:35;4.70;99.90
45137;DHT22;30894;51.740;19.498;2023-02-15T01:31:09;4.70;99.90
45137;DHT22;30894;51.740;19.498;2023-02-15T01:33:37;4.70;99.90
45137;DHT22;30894;51.740;19.498;2023-02-15T01:36:04;4.60;99.90
45137;DHT22;30894;51.740;19.498;2023-02-15T01:38:31;4.60;99.90
45137;DHT22;30894;51.740;19.498;2023-02-15T01:40:57;4.60;99.90
45137;DHT22;30894;51.740;19.498;2023-02-15T01:43:47;4.60;99.90
45137;DHT22;30894;51.740;19.498;2023-02-15T01:46:17;4.60;99.90
45137;DHT22;30894;51.740;19.498;2023-02-15T01:48:47;4.60;99.90
45137;DHT22;30894;51.740;19.498;2023-02-15T01:51:17;4.60;99.90
45137;DHT22;30894;51.740;19.498;2023-02-15T01:53:52;4.60;99.90
45137;DHT22;30894;51.740;19.498;2023-02-15T01:56:21;4.60;99.90
45137;DHT22;30894;51.740;19.498;2023-02-15T01:58:51;4.60;99.90
45137;DHT22;30894;51.740;19.498;2023-02-15T02:01:21;4.60;99.90
45137;DHT22;30894;51.740;19.498;2023-02-15T02:06:36;4.60;99.90
45137;DHT22;30894;51.740;19.498;2023-02-15T02:09:03;4.60;99.90
45137;DHT22;30894;51.740;19.498;2023-02-15T02:11:29;4.60;99.90
45137;DHT22;30894;51.740;19.498;2023-02-15T02:13:56;4.60;99.90
45137;DHT22;30894;51.740;19.498;2023-02-15T02:16:27;4.60;99.90
45137;DHT22;30894;51.740;19.498;2023-02-15T02:22:42;4.50;99.90
45137;DHT22;30894;51.740;19.498;2023-02-15T02:29:02;4.60;99.90
45137;DHT22;30894;51.740;19.498;2023-02-15T02:34:56;4.60;99.90
45137;DHT22;30894;51.740;19.498;2023-02-15T02:37:37;4.50;99.90
45137;DHT22;30894;51.740;19.498;2023-02-15T02:42:56;4.50;99.90
45137;DHT22;30894;51.740;19.498;2023-02-15T02:45:53;4.50;99.90
45137;DHT22;30894;51.740;19.498;2023-02-15T02:48:26;4.50;99.90
45137;DHT22;30894;51.740;19.498;2023-02-15T02:50:53;4.50;99.90
45137;DHT22;30894;51.740;19.498;2023-02-15T02:53:20;4.50;99.90
45137;DHT22;30894;51.740;19.498;2023-02-15T02:55:49;4.50;99.90
45137;DHT22;30894;51.740;19.498;2023-02-15T02:58:48;4.60;99.90
45137;DHT22;30894;51.740;19.498;2023-02-15T03:01:24;4.60;99.90
45137;DHT22;30894;51.740;19.498;2023-02-15T03:04:00;4.60;99.90
45137;DHT22;30894;51.740;19.498;2023-02-15T03:06:55;4.60;99.90
45137;DHT22;30894;51.740;19.498;2023-02-15T03:09:28;4.60;99.90
45137;DHT22;30894;51.740;19.498;2023-02-15T03:12:13;4.60;99.90
45137;DHT22;30894;51.740;19.498;2023-02-15T03:14:44;4.60;99.90
45137;DHT22;30894;51.740;19.498;2023-02-15T03:17:13;4.60;99.90
45137;DHT22;30894;51.740;19.498;2023-02-15T03:19:40;4.60;99.90
45137;DHT22;30894;51.740;19.498;2023-02-15T03:22:23;4.60;99.90
45137;DHT22;30894;51.740;19.498;2023-02-15T03:25:22;4.60;99.90
45137;DHT22;30894;51.740;19.498;2023-02-15T03:28:05;4.60;99.90
45137;DHT22;30894;51.740;19.498;2023-02-15T03:30:34;4.60;99.90
45137;DHT22;30894;51.740;19.498;2023-02-15T03:33:03;4.60;99.90
45137;DHT22;30894;51.740;19.498;2023-02-15T03:35:36;4.60;99.90
45137;DHT22;30894;51.740;19.498;2023-02-15T03:38:19;4.60;99.90
45137;DHT22;30894;51.740;19.498;2023-02-15T03:40:50;4.60;99.90
45137;DHT22;30894;51.740;19.498;2023-02-15T03:44:00;4.60;99.90
45137;DHT22;30894;51.740;19.498;2023-02-15T03:46:40;4.60;99.90
45137;DHT22;30894;51.740;19.498;2023-02-15T03:52:09;4.70;99.90
45137;DHT22;30894;51.740;19.498;2023-02-15T03:54:37;4.70;99.90
45137;DHT22;30894;51.740;19.498;2023-02-15T03:57:14;4.70;99.90
45137;DHT22;30894;51.740;19.498;2023-02-15T04:00:00;4.70;99.90
45137;DHT22;30894;51.740;19.498;2023-02-15T04:02:51;4.70;99.90
45137;DHT22;30894;51.740;19.498;2023-02-15T04:05:21;4.70;99.90
45137;DHT22;30894;51.740;19.498;2023-02-15T04:07:47;4.70;99.90
45137;DHT22;30894;51.740;19.498;2023-02-15T04:10:13;4.70;99.90
45137;DHT22;30894;51.740;19.498;2023-02-15T04:12:58;4.70;99.90
45137;DHT22;30894;51.740;19.498;2023-02-15T04:15:24;4.70;99.90
45137;DHT22;30894;51.740;19.498;2023-02-15T04:18:09;4.70;99.90
45137;DHT22;30894;51.740;19.498;2023-02-15T04:20:34;4.80;99.90
45137;DHT22;30894;51.740;19.498;2023-02-15T04:23:19;4.70;99.90
45137;DHT22;30894;51.740;19.498;2023-02-15T04:26:04;4.70;99.90
45137;DHT22;30894;51.740;19.498;2023-02-15T04:28:30;4.70;99.90
45137;DHT22;30894;51.740;19.498;2023-02-15T04:30:57;4.70;99.90
45137;DHT22;30894;51.740;19.498;2023-02-15T04:33:23;4.70;99.90
45137;DHT22;30894;51.740;19.498;2023-02-15T04:35:49;4.70;99.90
45137;DHT22;30894;51.740;19.498;2023-02-15T04:38:15;4.70;99.90
45137;DHT22;30894;51.740;19.498;2023-02-15T04:40:41;4.70;99.90
45137;DHT22;30894;51.740;19.498;2023-02-15T04:43:07;4.70;99.90
45137;DHT22;30894;51.740;19.498;2023-02-15T04:45:33;4.70;99.90
45137;DHT22;30894;51.740;19.498;2023-02-15T04:47:59;4.70;99.90
45137;DHT22;30894;51.740;19.498;2023-02-15T04:50:25;4.70;99.90
45137;DHT22;30894;51.740;19.498;2023-02-15T04:52:51;4.70;99.90
45137;DHT22;30894;51.740;19.498;2023-02-15T04:55:17;4.70;99.90
45137;DHT22;30894;51.740;19.498;2023-02-15T04:57:43;4.70;99.90
45137;DHT22;30894;51.740;19.498;2023-02-15T05:00:10;4.70;99.90
45137;DHT22;30894;51.740;19.498;2023-02-15T05:02:37;4.70;99.90
45137;DHT22;30894;51.740;19.498;2023-02-15T05:05:03;4.70;99.90
45137;DHT22;30894;51.740;19.498;2023-02-15T05:07:29;4.70;99.90
45137;DHT22;30894;51.740;19.498;2023-02-15T05:09:55;4.60;99.90
45137;DHT22;30894;51.740;19.498;2023-02-15T05:12:21;4.60;99.90
45137;DHT22;30894;51.740;19.498;2023-02-15T05:14:50;4.60;99.90
45137;DHT22;30894;51.740;19.498;2023-02-15T05:17:26;4.60;99.90
45137;DHT22;30894;51.740;19.498;2023-02-15T05:19:51;4.60;99.90
45137;DHT22;30894;51.740;19.498;2023-02-15T05:22:18;4.60;99.90
45137;DHT22;30894;51.740;19.498;2023-02-15T05:24:44;4.60;99.90
45137;DHT22;30894;51.740;19.498;2023-02-15T05:27:29;4.60;99.90
45137;DHT22;30894;51.740;19.498;2023-02-15T05:30:20;4.50;99.90
45137;DHT22;30894;51.740;19.498;2023-02-15T05:32:46;4.50;99.90
45137;DHT22;30894;51.740;19.498;2023-02-15T05:35:14;4.50;99.90
45137;DHT22;30894;51.740;19.498;2023-02-15T05:37:44;4.50;99.90
45137;DHT22;30894;51.740;19.498;2023-02-15T05:40:27;4.60;99.90
45137;DHT22;30894;51.740;19.498;2023-02-15T05:42:53;4.60;99.90
45137;DHT22;30894;51.740;19.498;2023-02-15T05:45:19;4.60;99.90
45137;DHT22;30894;51.740;19.498;2023-02-15T05:47:51;4.50;99.90
45137;DHT22;30894;51.740;19.498;2023-02-15T05:50:19;4.50;99.90
45137;DHT22;30894;51.740;19.498;2023-02-15T05:52:45;4.50;99.90
45137;DHT22;30894;51.740;19.498;2023-02-15T05:55:14;4.50;99.90
45137;DHT22;30894;51.740;19.498;2023-02-15T05:57:49;4.50;99.90
45137;DHT22;30894;51.740;19.498;2023-02-15T06:00:15;4.40;99.90
45137;DHT22;30894;51.740;19.498;2023-02-15T06:02:41;4.40;99.90
45137;DHT22;30894;51.740;19.498;2023-02-15T06:05:10;4.40;99.90
45137;DHT22;30894;51.740;19.498;2023-02-15T06:07:37;4.40;99.90
45137;DHT22;30894;51.740;19.498;2023-02-15T06:10:03;4.40;99.90
45137;DHT22;30894;51.740;19.498;2023-02-15T06:12:30;4.40;99.90
45137;DHT22;30894;51.740;19.498;2023-02-15T06:14:56;4.40;99.90
45137;DHT22;30894;51.740;19.498;2023-02-15T06:17:22;4.40;99.90
45137;DHT22;30894;51.740;19.498;2023-02-15T06:19:48;4.40;99.90
45137;DHT22;30894;51.740;19.498;2023-02-15T06:22:14;4.40;99.90
45137;DHT22;30894;51.740;19.498;2023-02-15T06:24:40;4.40;99.90
45137;DHT22;30894;51.740;19.498;2023-02-15T06:27:09;4.40;99.90
45137;DHT22;30894;51.740;19.498;2023-02-15T06:29:35;4.40;99.90
45137;DHT22;30894;51.740;19.498;2023-02-15T06:32:02;4.30;99.90
45137;DHT22;30894;51.740;19.498;2023-02-15T06:34:34;4.30;99.90
45137;DHT22;30894;51.740;19.498;2023-02-15T06:37:09;4.30;99.90
45137;DHT22;30894;51.740;19.498;2023-02-15T06:39:35;4.30;99.90
45137;DHT22;30894;51.740;19.498;2023-02-15T06:42:02;4.30;99.90
45137;DHT22;30894;51.740;19.498;2023-02-15T06:44:37;4.30;99.90
45137;DHT22;30894;51.740;19.498;2023-02-15T06:47:03;4.40;99.90
45137;DHT22;30894;51.740;19.498;2023-02-15T06:50:04;4.40;99.90
45137;DHT22;30894;51.740;19.498;2023-02-15T06:52:31;4.40;99.90
45137;DHT22;30894;51.740;19.498;2023-02-15T06:55:03;4.30;99.90
45137;DHT22;30894;51.740;19.498;2023-02-15T06:57:49;4.40;99.90
45137;DHT22;30894;51.740;19.498;2023-02-15T07:00:15;4.40;99.90
45137;DHT22;30894;51.740;19.498;2023-02-15T07:02:43;4.40;99.90
45137;DHT22;30894;51.740;19.498;2023-02-15T07:05:10;4.40;99.90
45137;DHT22;30894;51.740;19.498;2023-02-15T07:07:36;4.40;99.90
45137;DHT22;30894;51.740;19.498;2023-02-15T07:10:02;4.40;99.90
45137;DHT22;30894;51.740;19.498;2023-02-15T07:12:29;4.40;99.90
45137;DHT22;30894;51.740;19.498;2023-02-15T07:15:16;4.50;99.90
45137;DHT22;30894;51.740;19.498;2023-02-15T07:17:44;4.40;99.90
45137;DHT22;30894;51.740;19.498;2023-02-15T07:20:16;4.50;99.90
45137;DHT22;30894;51.740;19.498;2023-02-15T07:22:45;4.50;99.90
45137;DHT22;30894;51.740;19.498;2023-02-15T07:25:12;4.50;99.90
45137;DHT22;30894;51.740;19.498;2023-02-15T07:27:39;4.60;99.90
45137;DHT22;30894;51.740;19.498;2023-02-15T07:30:07;4.60;99.90
45137;DHT22;30894;51.740;19.498;2023-02-15T07:32:35;4.60;99.90
45137;DHT22;30894;51.740;19.498;2023-02-15T07:35:01;4.70;99.90
45137;DHT22;30894;51.740;19.498;2023-02-15T07:37:28;4.70;99.90
45137;DHT22;30894;51.740;19.498;2023-02-15T07:40:01;4.70;99.90
45137;DHT22;30894;51.740;19.498;2023-02-15T07:42:44;4.70;99.90
45137;DHT22;30894;51.740;19.498;2023-02-15T07:45:11;4.70;99.90
45137;DHT22;30894;51.740;19.498;2023-02-15T07:47:37;4.80;99.90
45137;DHT22;30894;51.740;19.498;2023-02-15T07:50:04;4.70;99.90
45137;DHT22;30894;51.740;19.498;2023-02-15T07:52:46;4.80;99.90
45137;DHT22;30894;51.740;19.498;2023-02-15T07:55:12;4.80;99.90
45137;DHT22;30894;51.740;19.498;2023-02-15T07:57:47;4.80;99.90
45137;DHT22;30894;51.740;19.498;2023-02-15T08:00:16;4.90;99.90
45137;DHT22;30894;51.740;19.498;2023-02-15T08:02:51;4.90;99.90
45137;DHT22;30894;51.740;19.498;2023-02-15T08:05:39;4.90;99.90
45137;DHT22;30894;51.740;19.498;2023-02-15T08:08:07;4.90;99.90
45137;DHT22;30894;51.740;19.498;2023-02-15T08:10:35;4.90;99.90
45137;DHT22;30894;51.740;19.498;2023-02-15T08:13:21;4.90;99.90
45137;DHT22;30894;51.740;19.498;2023-02-15T08:15:49;4.90;99.90
45137;DHT22;30894;51.740;19.498;2023-02-15T08:18:16;4.90;99.90
45137;DHT22;30894;51.740;19.498;2023-02-15T08:20:49;4.90;99.90
45137;DHT22;30894;51.740;19.498;2023-02-15T08:23:15;4.90;99.90
45137;DHT22;30894;51.740;19.498;2023-02-15T08:25:42;4.90;99.90
45137;DHT22;30894;51.740;19.498;2023-02-15T08:28:08;4.90;99.90
45137;DHT22;30894;51.740;19.498;2023-02-15T08:30:34;4.90;99.90
45137;DHT22;30894;51.740;19.498;2023-02-15T08:33:00;4.90;99.90
45137;DHT22;30894;51.740;19.498;2023-02-15T08:35:26;4.90;99.90
45137;DHT22;30894;51.740;19.498;2023-02-15T08:37:53;4.90;99.90
45137;DHT22;30894;51.740;19.498;2023-02-15T08:40:19;4.90;99.90
45137;DHT22;30894;51.740;19.498;2023-02-15T08:42:46;4.90;99.90
45137;DHT22;30894;51.740;19.498;2023-02-15T08:45:13;5.00;99.90
45137;DHT22;30894;51.740;19.498;2023-02-15T08:47:39;5.00;99.90
45137;DHT22;30894;51.740;19.498;2023-02-15T08:50:06;5.10;99.90
45137;DHT22;30894;51.740;19.498;2023-02-15T08:52:33;5.10;99.90
45137;DHT22;30894;51.740;19.498;2023-02-15T08:55:00;5.10;99.90
45137;DHT22;30894;51.740;19.498;2023-02-15T08:57:27;5.20;99.90
45137;DHT22;30894;51.740;19.498;2023-02-15T08:59:53;5.20;99.90
45137;DHT22;30894;51.740;19.498;2023-02-15T09:02:21;5.20;99.90
45137;DHT22;30894;51.740;19.498;2023-02-15T09:04:49;5.20;99.90
45137;DHT22;30894;51.740;19.498;2023-02-15T09:07:18;5.20;99.90
45137;DHT22;30894;51.740;19.498;2023-02-15T09:09:45;5.20;99.90
45137;DHT22;30894;51.740;19.498;2023-02-15T09:12:14;5.20;99.90
45137;DHT22;30894;51.740;19.498;2023-02-15T09:14:40;5.20;99.90
45137;DHT22;30894;51.740;19.498;2023-02-15T09:17:10;5.20;99.90
45137;DHT22;30894;51.740;19.498;2023-02-15T09:19:36;5.20;99.90
45137;DHT22;30894;51.740;19.498;2023-02-15T09:22:10;5.20;99.90
45137;DHT22;30894;51.740;19.498;2023-02-15T09:24:36;5.10;99.90
45137;DHT22;30894;51.740;19.498;2023-02-15T09:27:03;5.10;99.90
45137;DHT22;30894;51.740;19.498;2023-02-15T09:29:29;5.10;99.90
45137;DHT22;30894;51.740;19.498;2023-02-15T09:31:55;5.10;99.90
45137;DHT22;30894;51.740;19.498;2023-02-15T09:34:22;5.20;99.90
45137;DHT22;30894;51.740;19.498;2023-02-15T09:36:49;5.20;99.90
45137;DHT22;30894;51.740;19.498;2023-02-15T09:49:46;5.20;99.90
45137;DHT22;30894;51.740;19.498;2023-02-15T09:52:52;5.20;99.90
45137;DHT22;30894;51.740;19.498;2023-02-15T10:01:08;5.30;99.90
45137;DHT22;30894;51.740;19.498;2023-02-15T10:06:38;5.30;99.90
45137;DHT22;30894;51.740;19.498;2023-02-15T10:19:57;5.40;99.90
45137;DHT22;30894;51.740;19.498;2023-02-15T10:22:41;5.40;99.90
45137;DHT22;30894;51.740;19.498;2023-02-15T10:25:23;5.50;99.90
45137;DHT22;30894;51.740;19.498;2023-02-15T10:28:06;5.50;99.90
45137;DHT22;30894;51.740;19.498;2023-02-15T10:33:04;5.50;99.90
45137;DHT22;30894;51.740;19.498;2023-02-15T10:35:54;5.50;99.90
45137;DHT22;30894;51.740;19.498;2023-02-15T10:41:50;5.60;99.90
45137;DHT22;30894;51.740;19.498;2023-02-15T10:47:29;5.60;99.90
45137;DHT22;30894;51.740;19.498;2023-02-15T10:50:35;5.60;99.90
45137;DHT22;30894;51.740;19.498;2023-02-15T10:58:29;5.60;99.90
45137;DHT22;30894;51.740;19.498;2023-02-15T11:06:43;5.80;99.90
45137;DHT22;30894;51.740;19.498;2023-02-15T11:09:17;5.90;99.90
45137;DHT22;30894;51.740;19.498;2023-02-15T11:11:49;5.90;99.90
45137;DHT22;30894;51.740;19.498;2023-02-15T11:14:20;5.90;99.90
45137;DHT22;30894;51.740;19.498;2023-02-15T11:16:50;5.90;99.90
45137;DHT22;30894;51.740;19.498;2023-02-15T11:19:26;5.90;99.90
45137;DHT22;30894;51.740;19.498;2023-02-15T11:22:04;6.00;99.90
45137;DHT22;30894;51.740;19.498;2023-02-15T11:24:33;6.00;99.90
45137;DHT22;30894;51.740;19.498;2023-02-15T11:27:05;6.00;99.90
45137;DHT22;30894;51.740;19.498;2023-02-15T11:29:44;6.10;99.90
45137;DHT22;30894;51.740;19.498;2023-02-15T11:32:33;6.10;99.90
45137;DHT22;30894;51.740;19.498;2023-02-15T11:38:01;6.10;99.90
45137;DHT22;30894;51.740;19.498;2023-02-15T11:40:51;6.20;99.90
45137;DHT22;30894;51.740;19.498;2023-02-15T11:43:26;6.10;99.90
45137;DHT22;30894;51.740;19.498;2023-02-15T11:45:57;6.20;99.90
45137;DHT22;30894;51.740;19.498;2023-02-15T11:48:23;6.20;99.90
45137;DHT22;30894;51.740;19.498;2023-02-15T11:50:49;6.20;99.90
45137;DHT22;30894;51.740;19.498;2023-02-15T11:53:17;6.20;99.90
45137;DHT22;30894;51.740;19.498;2023-02-15T11:55:47;6.20;99.90
45137;DHT22;30894;51.740;19.498;2023-02-15T11:58:43;6.30;99.90
45137;DHT22;30894;51.740;19.498;2023-02-15T12:04:13;6.50;99.90
45137;DHT22;30894;51.740;19.498;2023-02-15T12:07:09;6.60;99.90
45137;DHT22;30894;51.740;19.498;2023-02-15T12:09:46;6.60;99.90
45137;DHT22;30894;51.740;19.498;2023-02-15T12:14:47;6.60;99.90
45137;DHT22;30894;51.740;19.498;2023-02-15T12:17:15;6.50;99.90
45137;DHT22;30894;51.740;19.498;2023-02-15T12:19:41;6.60;99.90
45137;DHT22;30894;51.740;19.498;2023-02-15T12:22:21;6.60;99.90
45137;DHT22;30894;51.740;19.498;2023-02-15T12:24:49;6.60;99.90
45137;DHT22;30894;51.740;19.498;2023-02-15T12:27:24;6.70;99.90
45137;DHT22;30894;51.740;19.498;2023-02-15T12:29:55;6.70;99.90
45137;DHT22;30894;51.740;19.498;2023-02-15T12:32:31;6.70;99.90
45137;DHT22;30894;51.740;19.498;2023-02-15T12:35:01;6.70;99.90
45137;DHT22;30894;51.740;19.498;2023-02-15T12:37:34;6.70;99.90
45137;DHT22;30894;51.740;19.498;2023-02-15T12:40:11;6.80;99.90
45137;DHT22;30894;51.740;19.498;2023-02-15T12:42:46;6.80;99.90
45137;DHT22;30894;51.740;19.498;2023-02-15T12:45:24;6.80;99.90
45137;DHT22;30894;51.740;19.498;2023-02-15T12:48:14;6.70;99.90
45137;DHT22;30894;51.740;19.498;2023-02-15T12:50:45;6.70;99.90
45137;DHT22;30894;51.740;19.498;2023-02-15T12:53:14;6.70;99.90
45137;DHT22;30894;51.740;19.498;2023-02-15T12:55:52;6.60;99.90
45137;DHT22;30894;51.740;19.498;2023-02-15T12:58:22;6.80;99.90
45137;DHT22;30894;51.740;19.498;2023-02-15T13:01:04;6.90;99.90
45137;DHT22;30894;51.740;19.498;2023-02-15T13:03:37;7.00;99.90
45137;DHT22;30894;51.740;19.498;2023-02-15T13:06:19;7.00;99.90
45137;DHT22;30894;51.740;19.498;2023-02-15T13:08:50;7.00;99.90
45137;DHT22;30894;51.740;19.498;2023-02-15T13:11:22;6.90;99.90
45137;DHT22;30894;51.740;19.498;2023-02-15T13:14:00;6.90;99.90
45137;DHT22;30894;51.740;19.498;2023-02-15T13:16:32;6.90;99.90
45137;DHT22;30894;51.740;19.498;2023-02-15T13:19:09;6.80;99.90
45137;DHT22;30894;51.740;19.498;2023-02-15T13:21:41;6.90;99.90
45137;DHT22;30894;51.740;19.498;2023-02-15T13:26:52;6.80;99.90
45137;DHT22;30894;51.740;19.498;2023-02-15T13:29:25;6.80;99.90
45137;DHT22;30894;51.740;19.498;2023-02-15T13:31:54;6.90;99.90
45137;DHT22;30894;51.740;19.498;2023-02-15T13:34:36;6.80;99.90
45137;DHT22;30894;51.740;19.498;2023-02-15T13:37:13;6.80;99.90
45137;DHT22;30894;51.740;19.498;2023-02-15T13:39:58;6.70;99.90
45137;DHT22;30894;51.740;19.498;2023-02-15T13:56:45;7.60;99.90
45137;DHT22;30894;51.740;19.498;2023-02-15T13:59:20;8.30;99.90
45137;DHT22;30894;51.740;19.498;2023-02-15T14:04:53;8.10;99.90
45137;DHT22;30894;51.740;19.498;2023-02-15T14:10:26;7.60;99.90
45137;DHT22;30894;51.740;19.498;2023-02-15T14:18:43;7.40;99.90
45137;DHT22;30894;51.740;19.498;2023-02-15T14:26:39;7.30;99.90
45137;DHT22;30894;51.740;19.498;2023-02-15T14:29:59;7.20;99.90
45137;DHT22;30894;51.740;19.498;2023-02-15T14:32:11;7.10;99.90
45137;DHT22;30894;51.740;19.498;2023-02-15T14:34:57;7.00;99.90
45137;DHT22;30894;51.740;19.498;2023-02-15T14:48:50;6.80;99.90
45137;DHT22;30894;51.740;19.498;2023-02-15T14:59:36;6.40;99.90
45137;DHT22;30894;51.740;19.498;2023-02-15T15:07:25;6.20;99.90
45137;DHT22;30894;51.740;19.498;2023-02-15T15:10:00;6.00;99.90
45137;DHT22;30894;51.740;19.498;2023-02-15T15:12:48;5.90;99.90
45137;DHT22;30894;51.740;19.498;2023-02-15T15:18:06;5.60;99.90
45137;DHT22;30894;51.740;19.498;2023-02-15T15:20:49;5.50;99.90
45137;DHT22;30894;51.740;19.498;2023-02-15T15:25:47;5.20;99.90
45137;DHT22;30894;51.740;19.498;2023-02-15T15:33:52;4.70;99.90
45137;DHT22;30894;51.740;19.498;2023-02-15T15:36:37;4.50;99.90
45137;DHT22;30894;51.740;19.498;2023-02-15T15:39:26;4.40;99.90
45137;DHT22;30894;51.740;19.498;2023-02-15T15:47:52;3.80;99.90
45137;DHT22;30894;51.740;19.498;2023-02-15T15:50:25;3.60;99.90
45137;DHT22;30894;51.740;19.498;2023-02-15T15:52:53;3.40;99.90
45137;DHT22;30894;51.740;19.498;2023-02-15T15:55:21;3.20;99.90
45137;DHT22;30894;51.740;19.498;2023-02-15T15:57:49;3.10;99.90
45137;DHT22;30894;51.740;19.498;2023-02-15T16:00:26;2.90;99.90
45137;DHT22;30894;51.740;19.498;2023-02-15T16:02:56;2.80;99.90
45137;DHT22;30894;51.740;19.498;2023-02-15T16:05:23;2.60;99.90
45137;DHT22;30894;51.740;19.498;2023-02-15T16:07:52;2.50;99.90
45137;DHT22;30894;51.740;19.498;2023-02-15T16:10:25;2.40;99.90
45137;DHT22;30894;51.740;19.498;2023-02-15T16:12:53;2.30;99.90
45137;DHT22;30894;51.740;19.498;2023-02-15T16:15:24;2.20;99.90
45137;DHT22;30894;51.740;19.498;2023-02-15T16:17:56;2.00;99.90
45137;DHT22;30894;51.740;19.498;2023-02-15T16:20:34;1.90;99.90
45137;DHT22;30894;51.740;19.498;2023-02-15T16:26:08;1.80;99.90
45137;DHT22;30894;51.740;19.498;2023-02-15T16:29:14;1.60;99.90
45137;DHT22;30894;51.740;19.498;2023-02-15T16:32:14;1.50;99.90
45137;DHT22;30894;51.740;19.498;2023-02-15T16:34:55;1.50;99.90
45137;DHT22;30894;51.740;19.498;2023-02-15T16:37:25;1.40;99.90
45137;DHT22;30894;51.740;19.498;2023-02-15T16:39:54;1.50;99.90
45137;DHT22;30894;51.740;19.498;2023-02-15T16:42:35;1.40;99.90
45137;DHT22;30894;51.740;19.498;2023-02-15T16:45:08;1.40;99.90
45137;DHT22;30894;51.740;19.498;2023-02-15T16:47:42;1.30;99.90
45137;DHT22;30894;51.740;19.498;2023-02-15T16:50:28;1.30;99.90
45137;DHT22;30894;51.740;19.498;2023-02-15T16:53:04;1.20;99.90
45137;DHT22;30894;51.740;19.498;2023-02-15T16:55:47;1.10;99.90
45137;DHT22;30894;51.740;19.498;2023-02-15T16:58:41;1.10;99.90
45137;DHT22;30894;51.740;19.498;2023-02-15T17:01:13;1.00;99.90
45137;DHT22;30894;51.740;19.498;2023-02-15T17:06:40;0.90;99.90
45137;DHT22;30894;51.740;19.498;2023-02-15T17:09:16;1.00;99.90
45137;DHT22;30894;51.740;19.498;2023-02-15T17:11:54;0.90;99.90
45137;DHT22;30894;51.740;19.498;2023-02-15T17:14:27;0.90;99.90
45137;DHT22;30894;51.740;19.498;2023-02-15T17:17:27;0.80;99.90
45137;DHT22;30894;51.740;19.498;2023-02-15T17:20:11;0.70;99.90
45137;DHT22;30894;51.740;19.498;2023-02-15T17:22:43;0.70;99.90
45137;DHT22;30894;51.740;19.498;2023-02-15T17:25:18;0.70;99.90
45137;DHT22;30894;51.740;19.498;2023-02-15T17:27:53;0.60;99.90
45137;DHT22;30894;51.740;19.498;2023-02-15T17:30:47;0.60;99.90
45137;DHT22;30894;51.740;19.498;2023-02-15T17:38:40;0.60;99.90
45137;DHT22;30894;51.740;19.498;2023-02-15T17:41:24;0.70;99.90
45137;DHT22;30894;51.740;19.498;2023-02-15T17:43:54;0.60;99.90
45137;DHT22;30894;51.740;19.498;2023-02-15T17:46:23;0.60;99.90
45137;DHT22;30894;51.740;19.498;2023-02-15T17:49:03;0.50;99.90
45137;DHT22;30894;51.740;19.498;2023-02-15T17:51:49;0.50;99.90
45137;DHT22;30894;51.740;19.498;2023-02-15T17:54:15;0.40;99.90
45137;DHT22;30894;51.740;19.498;2023-02-15T17:57:30;0.40;99.90
45137;DHT22;30894;51.740;19.498;2023-02-15T18:00:18;0.40;99.90
45137;DHT22;30894;51.740;19.498;2023-02-15T18:03:03;0.40;99.90
45137;DHT22;30894;51.740;19.498;2023-02-15T18:05:48;0.40;99.90
45137;DHT22;30894;51.740;19.498;2023-02-15T18:08:32;0.50;99.90
45137;DHT22;30894;51.740;19.498;2023-02-15T18:11:17;0.50;99.90
45137;DHT22;30894;51.740;19.498;2023-02-15T18:14:01;0.50;99.90
45137;DHT22;30894;51.740;19.498;2023-02-15T18:16:29;0.60;99.90
45137;DHT22;30894;51.740;19.498;2023-02-15T18:18:57;0.50;99.90
45137;DHT22;30894;51.740;19.498;2023-02-15T18:21:24;0.50;99.90
45137;DHT22;30894;51.740;19.498;2023-02-15T18:23:50;0.50;99.90
45137;DHT22;30894;51.740;19.498;2023-02-15T18:26:20;0.50;99.90
45137;DHT22;30894;51.740;19.498;2023-02-15T18:28:48;0.50;99.90
45137;DHT22;30894;51.740;19.498;2023-02-15T18:31:15;0.50;99.90
45137;DHT22;30894;51.740;19.498;2023-02-15T18:33:43;0.50;99.90
45137;DHT22;30894;51.740;19.498;2023-02-15T18:36:41;0.50;99.90
45137;DHT22;30894;51.740;19.498;2023-02-15T18:41:54;0.50;99.90
45137;DHT22;30894;51.740;19.498;2023-02-15T18:44:20;0.60;99.90
45137;DHT22;30894;51.740;19.498;2023-02-15T18:46:46;0.60;99.90
45137;DHT22;30894;51.740;19.498;2023-02-15T18:49:12;0.70;99.90
45137;DHT22;30894;51.740;19.498;2023-02-15T18:51:38;0.70;99.90
45137;DHT22;30894;51.740;19.498;2023-02-15T18:54:05;0.80;99.90
45137;DHT22;30894;51.740;19.498;2023-02-15T18:56:39;0.90;99.90